createdAt,value
2018-07-15T00:02:19.124Z,6.43
2018-07-15T00:04:53.682Z,4.13
2018-07-15T00:07:28.314Z,6.33
2018-07-15T00:10:02.890Z,3.50
2018-07-15T00:12:37.349Z,4.20
2018-07-15T00:15:11.795Z,7.57
2018-07-15T00:17:46.360Z,5.00
2018-07-15T00:20:20.736Z,4.23
2018-07-15T00:22:55.425Z,5.37
2018-07-15T00:25:29.920Z,6.50
2018-07-15T00:28:04.764Z,5.13
2018-07-15T00:30:39.477Z,4.27
2018-07-15T00:33:13.909Z,5.47
2018-07-15T00:35:48.508Z,6.23
2018-07-15T00:38:22.964Z,4.70
2018-07-15T00:40:57.569Z,4.20
2018-07-15T00:43:32.328Z,5.43
2018-07-15T00:46:07.104Z,6.77
2018-07-15T00:48:41.636Z,4.53
2018-07-15T00:51:16.093Z,4.97
2018-07-15T00:53:50.545Z,6.77
2018-07-15T00:56:25.149Z,4.33
2018-07-15T00:58:59.772Z,10.20
2018-07-15T01:01:34.184Z,5.13
2018-07-15T01:04:08.685Z,7.43
2018-07-15T01:06:43.318Z,4.63
2018-07-15T01:09:17.972Z,5.17
2018-07-15T01:11:52.849Z,4.43
2018-07-15T01:14:27.506Z,8.53
2018-07-15T01:17:02.044Z,3.60
2018-07-15T01:19:36.475Z,4.07
2018-07-15T01:22:11.077Z,5.57
2018-07-15T01:24:45.686Z,6.33
2018-07-15T01:27:20.324Z,6.40
2018-07-15T01:29:54.849Z,4.80
2018-07-15T01:32:29.330Z,4.90
2018-07-15T01:35:03.735Z,4.83
2018-07-15T01:37:38.045Z,5.17
2018-07-15T01:40:12.400Z,7.97
2018-07-15T01:42:47.271Z,7.17
2018-07-15T01:45:21.829Z,11.97
2018-07-15T01:47:56.241Z,5.57
2018-07-15T01:50:30.828Z,4.67
2018-07-15T01:53:05.612Z,4.73
2018-07-15T01:55:40.391Z,4.97
2018-07-15T01:58:14.944Z,5.07
2018-07-15T02:00:49.684Z,8.87
2018-07-15T02:03:24.111Z,6.33
2018-07-15T02:05:58.456Z,5.13
2018-07-15T02:08:32.955Z,5.33
2018-07-15T02:11:07.513Z,6.43
2018-07-15T02:13:42.228Z,8.27
2018-07-15T02:16:16.866Z,7.47
2018-07-15T02:18:51.328Z,6.80
2018-07-15T02:21:25.764Z,10.27
2018-07-15T02:24:00.376Z,7.83
2018-07-15T02:26:35.072Z,7.20
2018-07-15T02:29:09.805Z,7.83
2018-07-15T02:31:44.310Z,6.67
2018-07-15T02:34:18.904Z,8.63
2018-07-15T02:36:53.506Z,8.97
2018-07-15T02:39:27.728Z,7.87
2018-07-15T02:42:02.252Z,7.90
2018-07-15T02:44:37.024Z,10.77
2018-07-15T02:47:11.633Z,5.80
2018-07-15T02:49:46.226Z,8.23
2018-07-15T02:52:20.691Z,7.33
2018-07-15T02:54:55.286Z,6.40
2018-07-15T02:57:29.921Z,7.07
2018-07-15T03:00:04.686Z,9.27
2018-07-15T03:02:39.120Z,7.63
2018-07-15T03:05:13.749Z,6.90
2018-07-15T03:07:48.291Z,8.67
2018-07-15T03:10:22.847Z,6.10
2018-07-15T03:12:57.407Z,7.97
2018-07-15T03:15:31.997Z,8.70
2018-07-15T03:18:06.496Z,6.73
2018-07-15T03:20:41.024Z,6.47
2018-07-15T03:23:15.528Z,10.07
2018-07-15T03:25:50.034Z,7.57
2018-07-15T03:28:24.762Z,7.67
2018-07-15T03:30:59.176Z,7.83
2018-07-15T03:33:33.870Z,8.83
2018-07-15T03:36:08.437Z,10.10
2018-07-15T03:38:42.998Z,8.10
2018-07-15T03:41:17.679Z,8.43
2018-07-15T03:43:52.263Z,6.60
2018-07-15T03:46:26.999Z,10.17
2018-07-15T03:49:01.594Z,7.10
2018-07-15T03:51:36.137Z,8.43
2018-07-15T03:54:10.816Z,8.20
2018-07-15T03:56:45.478Z,7.50
2018-07-15T03:59:19.940Z,7.03
2018-07-15T04:01:54.557Z,7.57
2018-07-15T04:04:29.212Z,9.10
2018-07-15T04:07:03.733Z,10.10
2018-07-15T04:09:38.158Z,6.87
2018-07-15T04:12:12.795Z,10.37
2018-07-15T04:14:47.151Z,7.47
2018-07-15T04:17:21.726Z,7.67
2018-07-15T04:19:56.176Z,7.93
2018-07-15T04:22:30.595Z,8.07
2018-07-15T04:25:05.367Z,7.07
2018-07-15T04:27:40.113Z,10.33
2018-07-15T04:30:14.658Z,7.17
2018-07-15T04:32:49.225Z,8.90
2018-07-15T04:35:23.943Z,6.20
2018-07-15T04:37:58.420Z,6.87
2018-07-15T04:40:32.883Z,6.57
2018-07-15T04:43:07.534Z,11.70
2018-07-15T04:45:42.046Z,6.97
2018-07-15T04:48:16.731Z,7.90
2018-07-15T04:50:51.343Z,10.73
2018-07-15T04:53:25.744Z,8.37
2018-07-15T04:56:00.464Z,8.27
2018-07-15T04:58:35.101Z,12.27
2018-07-15T05:01:09.729Z,7.33
2018-07-15T05:03:44.234Z,7.70
2018-07-15T05:06:19.251Z,8.23
2018-07-15T05:08:53.881Z,8.60
2018-07-15T05:11:28.332Z,7.20
2018-07-15T05:14:02.898Z,7.03
2018-07-15T05:16:38.160Z,7.70
2018-07-15T05:19:12.733Z,8.63
2018-07-15T05:21:47.267Z,7.30
2018-07-15T05:24:21.958Z,9.07
2018-07-15T05:26:56.586Z,8.43
2018-07-15T05:29:31.094Z,6.60
2018-07-15T05:32:05.619Z,6.70
2018-07-15T05:34:40.094Z,8.00
2018-07-15T05:37:14.707Z,6.97
2018-07-15T05:39:49.192Z,7.83
2018-07-15T05:42:23.831Z,7.73
2018-07-15T05:44:58.601Z,7.40
2018-07-15T05:47:33.071Z,7.27
2018-07-15T05:50:07.681Z,9.00
2018-07-15T05:52:42.420Z,6.77
2018-07-15T05:55:17.035Z,8.73
2018-07-15T05:57:51.588Z,10.70
2018-07-15T06:00:25.993Z,7.73
2018-07-15T06:03:00.416Z,6.70
2018-07-15T06:05:34.830Z,6.33
2018-07-15T06:08:09.372Z,5.47
2018-07-15T06:10:43.833Z,5.13
2018-07-15T06:13:18.445Z,6.63
2018-07-15T06:15:52.884Z,7.93
2018-07-15T06:18:27.415Z,6.67
2018-07-15T06:21:01.835Z,5.73
2018-07-15T06:23:36.412Z,6.33
2018-07-15T06:26:10.947Z,5.97
2018-07-15T06:28:45.532Z,6.50
2018-07-15T06:31:20.043Z,7.27
2018-07-15T06:33:54.444Z,7.07
2018-07-15T06:36:28.912Z,5.33
2018-07-15T06:39:03.329Z,6.03
2018-07-15T06:41:37.704Z,6.90
2018-07-15T06:44:12.193Z,6.90
2018-07-15T06:46:46.886Z,6.60
2018-07-15T06:49:21.403Z,6.17
2018-07-15T06:51:55.864Z,5.37
2018-07-15T06:54:30.315Z,5.93
2018-07-15T06:57:04.747Z,5.13
2018-07-15T06:59:39.096Z,5.93
2018-07-15T07:02:13.525Z,4.60
2018-07-15T07:04:48.187Z,6.60
2018-07-15T07:07:22.684Z,4.40
2018-07-15T07:09:57.033Z,3.17
2018-07-15T07:12:31.572Z,3.70
2018-07-15T07:15:06.100Z,3.93
2018-07-15T07:17:40.458Z,4.63
2018-07-15T07:20:14.932Z,3.57
2018-07-15T07:22:49.280Z,4.97
2018-07-15T07:25:23.709Z,3.27
2018-07-15T07:27:58.056Z,2.83
2018-07-15T07:30:32.615Z,3.50
2018-07-15T07:33:07.173Z,3.63
2018-07-15T07:35:41.703Z,3.20
2018-07-15T07:38:16.174Z,4.20
2018-07-15T07:40:50.684Z,2.53
2018-07-15T07:43:25.242Z,2.73
2018-07-15T07:45:59.672Z,3.30
2018-07-15T07:48:34.532Z,2.20
2018-07-15T07:51:08.933Z,2.80
2018-07-15T07:53:43.384Z,2.40
2018-07-15T07:56:17.888Z,2.90
2018-07-15T07:58:52.215Z,2.40
2018-07-15T08:01:26.575Z,2.37
2018-07-15T08:04:01.239Z,3.17
2018-07-15T08:06:35.612Z,2.63
2018-07-15T08:09:09.936Z,2.40
2018-07-15T08:11:44.312Z,3.70
2018-07-15T08:14:18.691Z,2.90
2018-07-15T08:17:06.534Z,2.13
2018-07-15T08:19:40.900Z,2.40
2018-07-15T08:22:15.355Z,2.53
2018-07-15T08:24:49.836Z,2.43
2018-07-15T08:27:24.312Z,3.10
2018-07-15T08:30:41.112Z,2.20
2018-07-15T08:33:15.588Z,1.37
2018-07-15T08:35:50.057Z,1.63
2018-07-15T08:38:24.468Z,1.93
2018-07-15T08:40:59.023Z,1.20
2018-07-15T08:43:33.581Z,1.33
2018-07-15T08:46:08.409Z,1.10
2018-07-15T08:48:42.917Z,0.90
2018-07-15T08:51:17.280Z,1.10
2018-07-15T08:53:51.731Z,1.43
2018-07-15T08:56:26.252Z,2.43
2018-07-15T08:59:00.837Z,1.33
2018-07-15T09:01:35.421Z,0.93
2018-07-15T09:04:09.936Z,1.20
2018-07-15T09:06:44.403Z,1.80
2018-07-15T09:09:19.027Z,1.20
2018-07-15T09:11:53.625Z,1.00
2018-07-15T09:14:28.179Z,1.27
2018-07-15T09:17:02.602Z,1.70
2018-07-15T09:19:37.183Z,1.57
2018-07-15T09:22:11.739Z,1.77
2018-07-15T09:24:46.151Z,1.90
2018-07-15T09:27:20.641Z,1.73
2018-07-15T09:29:55.299Z,1.53
2018-07-15T09:32:29.813Z,1.47
2018-07-15T09:35:04.115Z,1.47
2018-07-15T09:37:38.576Z,1.40
2018-07-15T09:40:12.980Z,1.40
2018-07-15T09:42:47.377Z,1.40
2018-07-15T09:45:21.787Z,1.37
2018-07-15T09:47:56.175Z,1.63
2018-07-15T09:50:30.501Z,1.60
2018-07-15T09:53:04.790Z,1.82
2018-07-15T09:55:39.187Z,2.52
2018-07-15T09:58:13.513Z,1.42
2018-07-15T10:00:53.372Z,2.70
2018-07-15T10:03:28.219Z,2.20
2018-07-15T10:06:02.518Z,1.73
2018-07-15T10:08:36.899Z,2.30
2018-07-15T10:11:11.239Z,2.08
2018-07-15T10:13:45.580Z,1.98
2018-07-15T10:16:19.854Z,1.82
2018-07-15T10:18:54.262Z,1.82
2018-07-15T10:21:28.499Z,1.98
2018-07-15T10:24:02.875Z,1.87
2018-07-15T10:26:37.490Z,1.95
2018-07-15T10:29:11.760Z,1.52
2018-07-15T10:31:46.194Z,1.60
2018-07-15T10:34:20.623Z,2.25
2018-07-15T10:36:54.802Z,2.95
2018-07-15T10:39:29.280Z,1.80
2018-07-15T10:42:03.694Z,2.15
2018-07-15T10:44:38.156Z,2.55
2018-07-15T10:47:12.408Z,1.57
2018-07-15T10:49:46.831Z,1.22
2018-07-15T10:52:21.270Z,1.47
2018-07-15T10:54:55.683Z,1.72
2018-07-15T10:57:30.090Z,1.95
2018-07-15T11:00:04.755Z,1.35
2018-07-15T11:02:39.204Z,1.20
2018-07-15T11:05:13.423Z,1.60
2018-07-15T11:07:47.890Z,2.15
2018-07-15T11:10:22.262Z,1.37
2018-07-15T11:12:56.519Z,1.20
2018-07-15T11:15:30.963Z,2.20
2018-07-15T11:18:05.837Z,1.40
2018-07-15T11:20:40.283Z,1.07
2018-07-15T11:23:14.670Z,1.32
2018-07-15T11:25:48.918Z,1.32
2018-07-15T11:28:23.349Z,1.02
2018-07-15T11:30:57.765Z,1.72
2018-07-15T11:33:32.015Z,2.75
2018-07-15T11:36:06.660Z,1.52
2018-07-15T11:38:41.147Z,2.55
2018-07-15T11:41:15.507Z,1.27
2018-07-15T11:43:49.908Z,1.20
2018-07-15T11:46:30.998Z,1.80
2018-07-15T11:49:05.544Z,1.25
2018-07-15T11:51:39.830Z,4.65
2018-07-15T11:54:14.339Z,1.30
2018-07-15T11:56:48.783Z,1.40
2018-07-15T11:59:23.260Z,1.17
2018-07-15T12:01:57.727Z,1.47
2018-07-15T12:04:31.935Z,2.70
2018-07-15T12:07:20.402Z,1.33
2018-07-15T12:09:54.771Z,1.30
2018-07-15T12:12:29.204Z,2.37
2018-07-15T12:15:03.582Z,2.13
2018-07-15T12:17:37.839Z,1.67
2018-07-15T12:20:12.191Z,1.80
2018-07-15T12:22:46.499Z,2.37
2018-07-15T12:25:20.945Z,2.53
2018-07-15T12:27:55.352Z,1.43
2018-07-15T12:33:29.158Z,1.73
2018-07-15T12:36:03.642Z,3.77
2018-07-15T12:38:37.939Z,1.70
2018-07-15T12:44:25.629Z,1.87
2018-07-15T12:47:00.041Z,1.70
2018-07-15T12:49:34.305Z,1.83
2018-07-15T12:52:08.998Z,1.70
2018-07-15T12:54:43.393Z,2.17
2018-07-15T12:57:17.628Z,2.43
2018-07-15T12:59:52.067Z,2.50
2018-07-15T13:02:26.849Z,1.63
2018-07-15T13:05:01.219Z,3.77
2018-07-15T13:07:35.543Z,1.73
2018-07-15T13:10:09.773Z,5.90
2018-07-15T13:12:44.152Z,2.13
2018-07-15T13:15:18.544Z,7.03
2018-07-15T13:17:52.949Z,3.20
2018-07-15T13:20:27.579Z,2.83
2018-07-15T13:23:01.927Z,2.47
2018-07-15T13:25:36.528Z,1.97
2018-07-15T13:28:11.015Z,3.83
2018-07-15T13:30:45.648Z,2.00
2018-07-15T13:33:20.060Z,4.87
2018-07-15T13:35:54.533Z,1.80
2018-07-15T13:38:29.016Z,2.87
2018-07-15T13:41:03.676Z,1.47
2018-07-15T13:43:38.252Z,1.60
2018-07-15T13:46:12.719Z,1.43
2018-07-15T13:48:47.164Z,2.20
2018-07-15T13:51:21.674Z,1.57
2018-07-15T13:53:56.270Z,3.33
2018-07-15T13:56:30.686Z,2.00
2018-07-15T13:59:05.363Z,2.57
2018-07-15T14:01:40.084Z,1.60
2018-07-15T14:04:14.570Z,2.53
2018-07-15T14:06:48.940Z,2.33
2018-07-15T14:09:23.334Z,3.13
2018-07-15T14:11:57.799Z,3.10
2018-07-15T14:14:32.393Z,1.53
2018-07-15T14:17:06.768Z,4.90
2018-07-15T14:19:41.224Z,1.37
2018-07-15T14:22:15.693Z,1.57
2018-07-15T14:24:50.135Z,2.47
2018-07-15T14:27:24.613Z,1.20
2018-07-15T14:29:59.002Z,3.97
2018-07-15T14:32:33.509Z,2.80
2018-07-15T14:35:09.534Z,1.53
2018-07-15T14:37:44.159Z,3.03
2018-07-15T14:40:18.461Z,1.77
2018-07-15T14:42:52.970Z,2.83
2018-07-15T14:45:27.472Z,1.60
2018-07-15T14:48:01.819Z,1.23
2018-07-15T14:50:37.076Z,1.67
2018-07-15T14:53:11.628Z,2.17
2018-07-15T14:55:47.062Z,1.30
2018-07-15T14:58:21.466Z,1.67
2018-07-15T15:00:56.164Z,1.97
2018-07-15T15:03:30.654Z,1.93
2018-07-15T15:06:05.288Z,1.30
2018-07-15T15:08:39.747Z,5.07
2018-07-15T15:11:14.144Z,2.67
2018-07-15T15:13:48.636Z,2.37
2018-07-15T15:16:23.222Z,1.93
2018-07-15T15:18:57.579Z,1.73
2018-07-15T15:21:32.196Z,2.23
2018-07-15T15:24:07.059Z,1.27
2018-07-15T15:26:41.669Z,1.40
2018-07-15T15:29:16.083Z,3.10
2018-07-15T15:31:50.511Z,3.70
2018-07-15T15:34:25.171Z,1.40
2018-07-15T15:36:59.767Z,1.00
2018-07-15T15:39:38.167Z,1.00
2018-07-15T15:42:13.609Z,1.00
2018-07-15T15:44:48.167Z,9.70
2018-07-15T15:47:22.392Z,1.33
2018-07-15T15:49:56.777Z,2.07
2018-07-15T15:52:31.900Z,1.70
2018-07-15T15:55:06.519Z,1.60
2018-07-15T15:57:41.127Z,1.50
2018-07-15T16:00:15.726Z,2.77
2018-07-15T16:02:50.009Z,1.20
2018-07-15T16:05:24.417Z,1.53
2018-07-15T16:07:59.165Z,2.73
2018-07-15T16:10:33.591Z,2.27
2018-07-15T16:13:08.109Z,2.07
2018-07-15T16:15:42.664Z,2.23
2018-07-15T16:18:17.165Z,3.70
2018-07-15T16:20:51.661Z,6.53
2018-07-15T16:23:26.274Z,2.97
2018-07-15T16:26:00.796Z,0.90
2018-07-15T16:28:35.431Z,14.33
2018-07-15T16:31:09.900Z,1.03
2018-07-15T16:33:44.398Z,6.40
2018-07-15T16:36:18.921Z,1.20
2018-07-15T16:38:53.371Z,1.80
2018-07-15T16:41:28.383Z,1.00
2018-07-15T16:44:02.876Z,1.20
2018-07-15T16:46:37.165Z,3.80
2018-07-15T16:49:11.641Z,1.90
2018-07-15T16:51:46.143Z,1.33
2018-07-15T16:54:20.711Z,5.60
2018-07-15T16:56:56.155Z,1.30
2018-07-15T16:59:31.680Z,2.73
2018-07-15T17:02:06.317Z,9.03
2018-07-15T17:04:40.803Z,2.00
2018-07-15T17:07:15.097Z,3.80
2018-07-15T17:09:49.612Z,3.97
2018-07-15T17:12:24.126Z,1.37
2018-07-15T17:17:58.212Z,3.63
2018-07-15T17:20:32.871Z,1.10
2018-07-15T17:23:13.171Z,1.80
2018-07-15T17:25:58.320Z,1.00
2018-07-15T17:28:33.012Z,6.37
2018-07-15T17:31:07.691Z,1.80
2018-07-15T17:33:42.350Z,0.87
2018-07-15T17:36:19.227Z,1.43
2018-07-15T17:38:53.729Z,1.87
2018-07-15T17:41:28.225Z,2.30
2018-07-15T17:44:02.727Z,0.70
2018-07-15T17:46:37.249Z,0.70
2018-07-15T17:49:11.762Z,4.87
2018-07-15T17:51:46.279Z,1.90
2018-07-15T17:54:20.806Z,1.30
2018-07-15T17:56:55.427Z,1.30
2018-07-15T17:59:29.946Z,1.47
2018-07-15T18:02:04.459Z,4.27
2018-07-15T18:04:39.202Z,1.83
2018-07-15T18:07:13.532Z,3.67
2018-07-15T18:09:48.048Z,3.47
2018-07-15T18:12:22.788Z,2.57
2018-07-15T18:14:57.572Z,1.63
2018-07-15T18:17:33.821Z,2.03
2018-07-15T18:20:08.289Z,1.40
2018-07-15T18:22:42.812Z,3.03
2018-07-15T18:25:17.244Z,1.57
2018-07-15T18:27:52.168Z,0.80
2018-07-15T18:30:26.726Z,1.00
2018-07-15T18:33:01.238Z,0.83
2018-07-15T18:35:35.577Z,0.87
2018-07-15T18:38:10.144Z,1.23
2018-07-15T18:40:44.600Z,0.77
2018-07-15T18:43:19.367Z,1.37
2018-07-15T18:45:53.876Z,0.90
2018-07-15T18:48:28.469Z,2.43
2018-07-15T18:51:03.305Z,2.70
2018-07-15T18:53:38.477Z,1.10
2018-07-15T18:56:18.064Z,1.80
2018-07-15T18:59:00.376Z,1.03
2018-07-15T19:01:46.427Z,1.93
2018-07-15T19:04:21.183Z,1.87
2018-07-15T19:06:55.703Z,1.80
2018-07-15T19:09:30.111Z,1.60
2018-07-15T19:15:21.076Z,1.40
2018-07-15T19:17:55.657Z,1.53
2018-07-15T19:20:43.346Z,1.60
2018-07-15T19:23:18.876Z,1.00
2018-07-15T19:25:53.406Z,0.90
2018-07-15T19:28:28.010Z,0.80
2018-07-15T19:31:02.610Z,1.03
2018-07-15T19:33:37.334Z,0.70
2018-07-15T19:36:11.887Z,3.67
2018-07-15T19:38:46.570Z,1.10
2018-07-15T19:41:21.217Z,1.40
2018-07-15T19:43:55.655Z,0.83
2018-07-15T19:46:30.179Z,1.27
2018-07-15T19:49:04.607Z,0.67
2018-07-15T19:51:39.188Z,0.80
2018-07-15T19:54:14.004Z,0.83
2018-07-15T19:56:48.627Z,1.10
2018-07-15T19:59:23.068Z,2.47
2018-07-15T20:01:57.613Z,2.13
2018-07-15T20:04:32.029Z,1.43
2018-07-15T20:07:06.655Z,2.07
2018-07-15T20:09:41.212Z,2.30
2018-07-15T20:12:15.843Z,1.63
2018-07-15T20:14:50.385Z,0.90
2018-07-15T20:17:24.916Z,3.17
2018-07-15T20:19:59.516Z,1.13
2018-07-15T20:22:33.868Z,1.10
2018-07-15T20:25:08.665Z,0.70
2018-07-15T20:27:43.247Z,1.10
2018-07-15T20:30:17.872Z,3.70
2018-07-15T20:32:52.443Z,1.37
2018-07-15T20:35:26.899Z,1.10
2018-07-15T20:38:01.248Z,1.40
2018-07-15T20:40:35.829Z,1.50
2018-07-15T20:43:10.266Z,2.93
2018-07-15T20:45:44.695Z,1.43
2018-07-15T20:51:19.427Z,1.30
2018-07-15T20:53:59.281Z,1.70
2018-07-15T20:56:33.775Z,2.10
2018-07-15T20:59:08.293Z,1.23
2018-07-15T21:01:42.780Z,1.83
2018-07-15T21:04:27.828Z,1.97
2018-07-15T21:07:02.459Z,1.17
2018-07-15T21:09:36.982Z,1.10
2018-07-15T21:12:11.497Z,2.70
2018-07-15T21:14:46.295Z,0.90
2018-07-15T21:17:25.981Z,2.63
2018-07-15T21:20:00.544Z,1.20
2018-07-15T21:22:37.147Z,2.57
2018-07-15T21:31:09.296Z,3.60
2018-07-15T21:33:43.840Z,1.63
2018-07-15T21:36:18.459Z,1.40
2018-07-15T21:38:53.028Z,2.57
2018-07-15T21:41:27.734Z,2.30
2018-07-15T21:44:02.242Z,1.67
2018-07-15T21:46:36.857Z,2.10
2018-07-15T21:49:11.309Z,2.37
2018-07-15T21:51:45.791Z,1.47
2018-07-15T21:54:20.417Z,1.53
2018-07-15T21:56:55.109Z,4.10
2018-07-15T21:59:29.696Z,1.17
2018-07-15T22:02:04.261Z,2.23
2018-07-15T22:04:38.971Z,1.90
2018-07-15T22:07:24.963Z,3.40
2018-07-15T22:10:09.152Z,2.80
2018-07-15T22:12:43.739Z,1.27
2018-07-15T22:15:18.336Z,1.37
2018-07-15T22:17:52.901Z,1.20
2018-07-15T22:20:27.296Z,2.23
2018-07-15T22:23:01.999Z,1.40
2018-07-15T22:25:36.590Z,1.37
2018-07-15T22:28:11.291Z,2.20
2018-07-15T22:30:45.983Z,4.63
2018-07-15T22:33:20.503Z,1.57
2018-07-15T22:35:54.876Z,2.10
2018-07-15T22:38:29.344Z,2.13
2018-07-15T22:41:03.848Z,1.20
2018-07-15T22:43:39.161Z,1.50
2018-07-15T22:46:13.720Z,1.83
2018-07-15T22:48:48.543Z,1.00
2018-07-15T22:51:36.267Z,1.30
2018-07-15T22:54:11.073Z,1.27
2018-07-15T22:56:45.757Z,1.70
2018-07-15T22:59:44.546Z,2.47
2018-07-15T23:02:19.011Z,1.40
2018-07-15T23:06:02.441Z,2.43
2018-07-15T23:08:36.954Z,1.17
2018-07-15T23:11:12.403Z,1.27
2018-07-15T23:13:46.848Z,2.63
2018-07-15T23:16:21.336Z,1.10
2018-07-15T23:18:55.890Z,1.27
2018-07-15T23:21:30.363Z,1.30
2018-07-15T23:24:04.874Z,1.20
2018-07-15T23:26:39.388Z,1.43
2018-07-15T23:29:14.154Z,2.93
2018-07-15T23:31:48.595Z,1.93
2018-07-15T23:34:22.999Z,1.60
2018-07-15T23:36:57.508Z,1.47
2018-07-15T23:39:32.001Z,1.40
2018-07-15T23:42:06.505Z,1.60
2018-07-15T23:44:40.938Z,2.07
2018-07-15T23:47:15.332Z,3.50
2018-07-15T23:49:49.789Z,2.20
2018-07-15T23:52:24.715Z,2.10
2018-07-15T23:54:59.496Z,1.63
2018-07-15T23:57:34.022Z,1.37
